createdAt,value
2019-01-06T00:00:35.498Z,1026.90
2019-01-06T00:01:35.483Z,1026.90
2019-01-06T00:02:35.475Z,1026.91
2019-01-06T00:03:35.471Z,1026.88
2019-01-06T00:04:35.454Z,1026.83
2019-01-06T00:05:35.450Z,1026.86
2019-01-06T00:06:35.440Z,1026.92
2019-01-06T00:07:35.437Z,1026.83
2019-01-06T00:08:35.427Z,1026.87
2019-01-06T00:09:35.408Z,1026.92
2019-01-06T00:10:35.398Z,1026.86
2019-01-06T00:11:35.392Z,1026.89
2019-01-06T00:12:35.385Z,1026.83
2019-01-06T00:13:35.370Z,1026.86
2019-01-06T00:14:35.366Z,1026.90
2019-01-06T00:15:35.353Z,1026.83
2019-01-06T00:16:35.341Z,1026.83
2019-01-06T00:17:35.336Z,1026.86
2019-01-06T00:18:35.327Z,1026.81
2019-01-06T00:19:35.338Z,1026.79
2019-01-06T00:20:35.309Z,1026.79
2019-01-06T00:21:35.296Z,1026.74
2019-01-06T00:22:35.284Z,1026.76
2019-01-06T00:23:35.277Z,1026.69
2019-01-06T00:24:35.269Z,1026.76
2019-01-06T00:25:35.262Z,1026.70
2019-01-06T00:26:35.253Z,1026.71
2019-01-06T00:27:35.237Z,1026.72
2019-01-06T00:28:35.227Z,1026.78
2019-01-06T00:29:35.223Z,1026.80
2019-01-06T00:30:35.214Z,1026.83
2019-01-06T00:31:35.205Z,1026.79
2019-01-06T00:32:35.196Z,1026.90
2019-01-06T00:33:35.184Z,1026.91
2019-01-06T00:34:35.170Z,1026.92
2019-01-06T00:35:35.162Z,1026.88
2019-01-06T00:36:35.152Z,1026.95
2019-01-06T00:37:35.147Z,1026.94
2019-01-06T00:38:35.138Z,1026.90
2019-01-06T00:39:35.127Z,1026.90
2019-01-06T00:40:35.119Z,1026.85
2019-01-06T00:41:35.104Z,1026.84
2019-01-06T00:42:35.096Z,1026.92
2019-01-06T00:43:35.091Z,1026.90
2019-01-06T00:44:35.082Z,1026.91
2019-01-06T00:45:35.066Z,1026.93
2019-01-06T00:46:35.057Z,1026.90
2019-01-06T00:47:35.047Z,1026.86
2019-01-06T00:48:35.039Z,1026.86
2019-01-06T00:49:35.034Z,1026.93
2019-01-06T00:50:35.024Z,1026.88
2019-01-06T00:51:35.015Z,1026.85
2019-01-06T00:52:35.012Z,1026.90
2019-01-06T00:53:34.989Z,1026.86
2019-01-06T00:54:34.982Z,1026.98
2019-01-06T00:55:34.971Z,1026.88
2019-01-06T00:56:34.962Z,1026.92
2019-01-06T00:57:34.957Z,1026.88
2019-01-06T00:58:34.947Z,1026.92
2019-01-06T00:59:34.934Z,1026.92
2019-01-06T01:00:34.925Z,1026.93
2019-01-06T01:01:34.918Z,1026.98
2019-01-06T01:02:34.910Z,1026.96
2019-01-06T01:03:34.900Z,1026.99
2019-01-06T01:04:34.896Z,1027.03
2019-01-06T01:05:34.877Z,1027.04
2019-01-06T01:06:34.866Z,1027.01
2019-01-06T01:07:34.855Z,1027.07
2019-01-06T01:08:34.847Z,1027.05
2019-01-06T01:09:35.933Z,1027.03
2019-01-06T01:10:34.832Z,1027.08
2019-01-06T01:11:34.823Z,1026.99
2019-01-06T01:12:34.812Z,1027.04
2019-01-06T01:13:34.798Z,1027.00
2019-01-06T01:14:34.788Z,1027.01
2019-01-06T01:15:34.784Z,1027.06
2019-01-06T01:16:34.775Z,1027.07
2019-01-06T01:17:34.759Z,1027.00
2019-01-06T01:18:34.753Z,1027.08
2019-01-06T01:19:34.741Z,1027.03
2019-01-06T01:20:34.730Z,1027.03
2019-01-06T01:21:34.728Z,1027.07
2019-01-06T01:22:34.715Z,1027.04
2019-01-06T01:23:34.705Z,1027.03
2019-01-06T01:24:34.696Z,1027.02
2019-01-06T01:25:34.682Z,1027.05
2019-01-06T01:26:34.673Z,1026.99
2019-01-06T01:27:34.662Z,1027.07
2019-01-06T01:28:34.654Z,1027.05
2019-01-06T01:29:34.647Z,1027.06
2019-01-06T01:30:34.639Z,1027.06
2019-01-06T01:31:34.624Z,1027.11
2019-01-06T01:32:34.615Z,1027.14
2019-01-06T01:33:34.612Z,1027.18
2019-01-06T01:34:34.600Z,1027.16
2019-01-06T01:35:34.592Z,1027.24
2019-01-06T01:36:34.582Z,1027.24
2019-01-06T01:37:34.627Z,1027.18
2019-01-06T01:38:34.556Z,1027.24
2019-01-06T01:39:34.550Z,1027.23
2019-01-06T01:40:34.540Z,1027.21
2019-01-06T01:41:34.529Z,1027.25
2019-01-06T01:42:34.520Z,1027.25
2019-01-06T01:43:34.512Z,1027.30
2019-01-06T01:44:34.503Z,1027.25
2019-01-06T01:45:34.488Z,1027.27
2019-01-06T01:46:34.479Z,1027.20
2019-01-06T01:47:34.474Z,1027.25
2019-01-06T01:48:34.462Z,1027.26
2019-01-06T01:49:34.448Z,1027.21
2019-01-06T01:50:34.443Z,1027.24
2019-01-06T01:51:34.428Z,1027.20
2019-01-06T01:52:34.422Z,1027.24
2019-01-06T01:53:34.412Z,1027.21
2019-01-06T01:54:34.402Z,1027.27
2019-01-06T01:55:34.394Z,1027.20
2019-01-06T01:56:34.385Z,1027.20
2019-01-06T01:57:34.371Z,1027.22
2019-01-06T01:58:34.359Z,1027.21
2019-01-06T01:59:34.350Z,1027.20
2019-01-06T02:00:34.347Z,1027.19
2019-01-06T02:01:34.335Z,1027.18
2019-01-06T02:02:34.325Z,1027.17
2019-01-06T02:03:34.313Z,1027.16
2019-01-06T02:04:34.301Z,1027.17
2019-01-06T02:05:34.297Z,1027.15
2019-01-06T02:06:34.285Z,1027.21
2019-01-06T02:07:34.274Z,1027.16
2019-01-06T02:08:34.268Z,1027.19
2019-01-06T02:09:34.252Z,1027.22
2019-01-06T02:10:34.241Z,1027.16
2019-01-06T02:11:34.233Z,1027.19
2019-01-06T02:12:34.222Z,1027.17
2019-01-06T02:13:34.216Z,1027.17
2019-01-06T02:14:34.207Z,1027.18
2019-01-06T02:15:34.197Z,1027.14
2019-01-06T02:16:34.189Z,1027.17
2019-01-06T02:17:34.172Z,1027.22
2019-01-06T02:18:34.163Z,1027.23
2019-01-06T02:19:34.159Z,1027.18
2019-01-06T02:20:34.149Z,1027.13
2019-01-06T02:21:34.134Z,1027.19
2019-01-06T02:22:34.125Z,1027.20
2019-01-06T02:23:34.114Z,1027.21
2019-01-06T02:24:34.104Z,1027.20
2019-01-06T02:25:34.100Z,1027.21
2019-01-06T02:26:34.091Z,1027.19
2019-01-06T02:27:34.080Z,1027.14
2019-01-06T02:28:34.074Z,1027.16
2019-01-06T02:29:34.055Z,1027.15
2019-01-06T02:30:34.047Z,1027.11
2019-01-06T02:31:34.036Z,1027.15
2019-01-06T02:32:34.049Z,1027.19
2019-01-06T02:33:34.020Z,1027.22
2019-01-06T02:34:34.015Z,1027.24
2019-01-06T02:35:33.996Z,1027.26
2019-01-06T02:36:33.987Z,1027.22
2019-01-06T02:37:33.984Z,1027.19
2019-01-06T02:38:33.974Z,1027.21
2019-01-06T02:39:33.964Z,1027.29
2019-01-06T02:40:33.954Z,1027.22
2019-01-06T02:41:33.942Z,1027.24
2019-01-06T02:42:33.929Z,1027.22
2019-01-06T02:43:33.918Z,1027.24
2019-01-06T02:44:33.915Z,1027.24
2019-01-06T02:45:33.909Z,1027.26
2019-01-06T02:46:33.894Z,1027.22
2019-01-06T02:47:33.884Z,1027.22
2019-01-06T02:48:33.875Z,1027.25
2019-01-06T02:49:33.863Z,1027.16
2019-01-06T02:50:33.850Z,1027.21
2019-01-06T02:51:33.849Z,1027.20
2019-01-06T02:52:33.834Z,1027.30
2019-01-06T02:53:33.822Z,1027.23
2019-01-06T02:54:33.811Z,1027.21
2019-01-06T02:55:33.801Z,1027.24
2019-01-06T02:56:33.794Z,1027.19
2019-01-06T02:57:33.787Z,1027.20
2019-01-06T02:58:33.777Z,1027.20
2019-01-06T02:59:33.768Z,1027.18
2019-01-06T03:00:33.769Z,1027.19
2019-01-06T03:01:33.741Z,1027.20
2019-01-06T03:02:33.734Z,1027.21
2019-01-06T03:03:33.725Z,1027.17
2019-01-06T03:04:33.713Z,1027.18
2019-01-06T03:05:33.706Z,1027.13
2019-01-06T03:06:33.696Z,1027.19
2019-01-06T03:07:33.684Z,1027.14
2019-01-06T03:08:33.673Z,1027.14
2019-01-06T03:09:33.668Z,1027.16
2019-01-06T03:10:33.659Z,1027.13
2019-01-06T03:11:33.649Z,1027.13
2019-01-06T03:12:33.639Z,1027.12
2019-01-06T03:13:33.624Z,1027.12
2019-01-06T03:14:33.615Z,1027.13
2019-01-06T03:15:33.604Z,1027.07
2019-01-06T03:16:33.595Z,1027.16
2019-01-06T03:17:33.589Z,1027.12
2019-01-06T03:18:33.580Z,1027.14
2019-01-06T03:19:33.578Z,1027.19
2019-01-06T03:20:33.561Z,1027.11
2019-01-06T03:21:33.546Z,1027.14
2019-01-06T03:22:33.538Z,1027.11
2019-01-06T03:23:33.532Z,1027.12
2019-01-06T03:24:33.522Z,1027.12
2019-01-06T03:25:33.509Z,1027.11
2019-01-06T03:26:33.498Z,1027.14
2019-01-06T03:27:33.487Z,1027.12
2019-01-06T03:28:33.477Z,1027.13
2019-01-06T03:29:33.471Z,1027.13
2019-01-06T03:30:33.462Z,1027.08
2019-01-06T03:31:33.472Z,1027.06
2019-01-06T03:32:33.444Z,1027.04
2019-01-06T03:33:33.427Z,1027.02
2019-01-06T03:34:33.419Z,1027.04
2019-01-06T03:35:33.410Z,1027.08
2019-01-06T03:36:33.399Z,1027.00
2019-01-06T03:37:33.395Z,1026.98
2019-01-06T03:38:33.384Z,1027.08
2019-01-06T03:39:33.372Z,1027.02
2019-01-06T03:40:33.366Z,1026.98
2019-01-06T03:41:33.354Z,1027.01
2019-01-06T03:42:33.345Z,1026.98
2019-01-06T03:43:33.384Z,1026.96
2019-01-06T03:44:33.325Z,1026.91
2019-01-06T03:45:33.309Z,1026.96
2019-01-06T03:46:33.301Z,1026.94
2019-01-06T03:47:33.297Z,1026.96
2019-01-06T03:48:33.282Z,1026.90
2019-01-06T03:49:33.276Z,1026.96
2019-01-06T03:50:33.267Z,1026.91
2019-01-06T03:51:33.257Z,1026.86
2019-01-06T03:52:33.249Z,1026.95
2019-01-06T03:53:33.233Z,1026.91
2019-01-06T03:54:33.222Z,1026.89
2019-01-06T03:55:33.231Z,1026.81
2019-01-06T03:56:33.208Z,1026.83
2019-01-06T03:57:33.193Z,1026.88
2019-01-06T03:58:33.183Z,1026.80
2019-01-06T03:59:33.173Z,1026.79
2019-01-06T04:00:33.187Z,1026.75
2019-01-06T04:01:33.158Z,1026.81
2019-01-06T04:02:33.149Z,1026.82
2019-01-06T04:03:33.139Z,1026.73
2019-01-06T04:04:33.133Z,1026.76
2019-01-06T04:05:33.115Z,1026.72
2019-01-06T04:06:33.105Z,1026.72
2019-01-06T04:07:33.098Z,1026.74
2019-01-06T04:08:33.087Z,1026.73
2019-01-06T04:09:33.083Z,1026.74
2019-01-06T04:10:33.074Z,1026.73
2019-01-06T04:11:33.058Z,1026.74
2019-01-06T04:12:33.055Z,1026.74
2019-01-06T04:13:33.043Z,1026.68
2019-01-06T04:14:33.033Z,1026.72
2019-01-06T04:15:33.025Z,1026.70
2019-01-06T04:16:33.015Z,1026.74
2019-01-06T04:17:32.999Z,1026.72
2019-01-06T04:18:32.991Z,1026.75
2019-01-06T04:19:32.987Z,1026.69
2019-01-06T04:20:32.974Z,1026.71
2019-01-06T04:21:32.963Z,1026.65
2019-01-06T04:22:32.950Z,1026.77
2019-01-06T04:23:32.940Z,1026.62
2019-01-06T04:24:32.931Z,1026.63
2019-01-06T04:25:32.929Z,1026.66
2019-01-06T04:26:32.917Z,1026.67
2019-01-06T04:27:32.903Z,1026.64
2019-01-06T04:28:32.894Z,1026.73
2019-01-06T04:29:32.889Z,1026.67
2019-01-06T04:30:32.877Z,1026.68
2019-01-06T04:31:32.868Z,1026.73
2019-01-06T04:32:32.858Z,1026.69
2019-01-06T04:33:32.843Z,1026.73
2019-01-06T04:34:32.836Z,1026.69
2019-01-06T04:35:32.825Z,1026.68
2019-01-06T04:36:32.815Z,1026.74
2019-01-06T04:37:32.811Z,1026.67
2019-01-06T04:38:32.800Z,1026.69
2019-01-06T04:39:32.792Z,1026.63
2019-01-06T04:40:32.790Z,1026.67
2019-01-06T04:41:32.768Z,1026.70
2019-01-06T04:42:32.757Z,1026.61
2019-01-06T04:43:32.753Z,1026.69
2019-01-06T04:44:32.743Z,1026.67
2019-01-06T04:45:32.727Z,1026.65
2019-01-06T04:46:32.719Z,1026.61
2019-01-06T04:47:32.708Z,1026.64
2019-01-06T04:48:32.700Z,1026.62
2019-01-06T04:49:32.693Z,1026.58
2019-01-06T04:50:32.684Z,1026.60
2019-01-06T04:51:32.676Z,1026.56
2019-01-06T04:52:32.665Z,1026.54
2019-01-06T04:53:32.652Z,1026.59
2019-01-06T04:54:32.643Z,1026.60
2019-01-06T04:55:32.631Z,1026.56
2019-01-06T04:56:32.623Z,1026.59
2019-01-06T04:57:32.617Z,1026.57
2019-01-06T04:58:32.607Z,1026.59
2019-01-06T04:59:32.596Z,1026.61
2019-01-06T05:00:32.583Z,1026.57
2019-01-06T05:01:32.579Z,1026.57
2019-01-06T05:02:32.570Z,1026.54
2019-01-06T05:03:32.559Z,1026.59
2019-01-06T05:04:32.550Z,1026.52
2019-01-06T05:05:32.538Z,1026.60
2019-01-06T05:06:32.525Z,1026.54
2019-01-06T05:07:32.515Z,1026.58
2019-01-06T05:08:32.506Z,1026.52
2019-01-06T05:09:32.500Z,1026.54
2019-01-06T05:10:32.491Z,1026.59
2019-01-06T05:11:32.571Z,1026.57
2019-01-06T05:12:32.474Z,1026.60
2019-01-06T05:13:32.458Z,1026.54
2019-01-06T05:14:32.448Z,1026.58
2019-01-06T05:15:32.445Z,1026.56
2019-01-06T05:16:32.434Z,1026.58
2019-01-06T05:17:32.419Z,1026.53
2019-01-06T05:18:32.411Z,1026.58
2019-01-06T05:19:32.400Z,1026.63
2019-01-06T05:20:32.392Z,1026.62
2019-01-06T05:21:32.385Z,1026.64
2019-01-06T05:22:32.377Z,1026.59
2019-01-06T05:23:32.370Z,1026.60
2019-01-06T05:24:32.357Z,1026.60
2019-01-06T05:25:32.345Z,1026.54
2019-01-06T05:26:32.332Z,1026.61
2019-01-06T05:27:32.323Z,1026.57
2019-01-06T05:28:32.318Z,1026.60
2019-01-06T05:29:32.307Z,1026.56
2019-01-06T05:30:32.297Z,1026.55
2019-01-06T05:31:32.285Z,1026.56
2019-01-06T05:32:32.274Z,1026.56
2019-01-06T05:33:32.270Z,1026.60
2019-01-06T05:34:32.262Z,1026.62
2019-01-06T05:35:32.251Z,1026.58
2019-01-06T05:36:32.242Z,1026.66
2019-01-06T05:37:32.228Z,1026.60
2019-01-06T05:38:32.217Z,1026.62
2019-01-06T05:39:32.206Z,1026.66
2019-01-06T05:40:32.198Z,1026.61
2019-01-06T05:41:32.193Z,1026.64
2019-01-06T05:42:32.183Z,1026.70
2019-01-06T05:43:32.173Z,1026.71
2019-01-06T05:44:32.162Z,1026.67
2019-01-06T05:45:32.148Z,1026.67
2019-01-06T05:46:32.142Z,1026.73
2019-01-06T05:47:32.133Z,1026.70
2019-01-06T05:48:32.128Z,1026.74
2019-01-06T05:49:32.110Z,1026.73
2019-01-06T05:50:32.100Z,1026.80
2019-01-06T05:51:32.091Z,1026.78
2019-01-06T05:52:32.082Z,1026.76
2019-01-06T05:53:32.076Z,1026.79
2019-01-06T05:54:32.068Z,1026.79
2019-01-06T05:55:32.059Z,1026.80
2019-01-06T05:56:32.050Z,1026.85
2019-01-06T05:57:32.035Z,1026.86
2019-01-06T05:58:32.022Z,1026.81
2019-01-06T05:59:32.012Z,1026.88
2019-01-06T06:00:32.003Z,1026.87
2019-01-06T06:01:31.998Z,1026.85
2019-01-06T06:02:31.988Z,1026.89
2019-01-06T06:03:31.976Z,1026.91
2019-01-06T06:04:31.965Z,1026.86
2019-01-06T06:05:31.959Z,1026.93
2019-01-06T06:06:31.949Z,1026.95
2019-01-06T06:07:31.940Z,1026.90
2019-01-06T06:08:31.931Z,1026.88
2019-01-06T06:09:31.915Z,1026.95
2019-01-06T06:10:31.905Z,1026.98
2019-01-06T06:11:31.897Z,1026.93
2019-01-06T06:12:31.888Z,1026.94
2019-01-06T06:13:31.882Z,1026.97
2019-01-06T06:14:31.873Z,1027.00
2019-01-06T06:15:31.862Z,1026.96
2019-01-06T06:16:31.853Z,1027.05
2019-01-06T06:17:31.837Z,1027.01
2019-01-06T06:18:31.827Z,1027.05
2019-01-06T06:19:31.823Z,1027.00
2019-01-06T06:20:31.814Z,1027.04
2019-01-06T06:21:31.800Z,1027.09
2019-01-06T06:22:31.788Z,1027.07
2019-01-06T06:23:31.780Z,1027.08
2019-01-06T06:24:31.770Z,1027.08
2019-01-06T06:25:31.771Z,1027.09
2019-01-06T06:26:31.755Z,1027.07
2019-01-06T06:27:31.744Z,1027.14
2019-01-06T06:28:31.735Z,1027.08
2019-01-06T06:29:31.721Z,1027.13
2019-01-06T06:30:32.620Z,1027.14
2019-01-06T06:31:31.701Z,1027.13
2019-01-06T06:32:31.694Z,1027.16
2019-01-06T06:33:31.687Z,1027.20
2019-01-06T06:34:31.678Z,1027.17
2019-01-06T06:35:31.663Z,1027.15
2019-01-06T06:36:31.653Z,1027.18
2019-01-06T06:37:31.648Z,1027.17
2019-01-06T06:38:31.639Z,1027.17
2019-01-06T06:39:31.627Z,1027.09
2019-01-06T06:40:31.619Z,1027.11
2019-01-06T06:41:31.605Z,1027.15
2019-01-06T06:42:31.595Z,1027.15
2019-01-06T06:43:31.585Z,1027.18
2019-01-06T06:44:31.579Z,1027.13
2019-01-06T06:45:31.570Z,1027.21
2019-01-06T06:46:31.559Z,1027.14
2019-01-06T06:47:31.551Z,1027.18
2019-01-06T06:48:31.542Z,1027.19
2019-01-06T06:49:31.527Z,1027.09
2019-01-06T06:50:31.517Z,1027.24
2019-01-06T06:51:31.513Z,1027.24
2019-01-06T06:52:31.503Z,1027.23
2019-01-06T06:53:31.492Z,1027.24
2019-01-06T06:54:31.478Z,1027.24
2019-01-06T06:55:31.469Z,1027.28
2019-01-06T06:56:31.458Z,1027.29
2019-01-06T06:57:31.459Z,1027.24
2019-01-06T06:58:31.444Z,1027.30
2019-01-06T06:59:31.433Z,1027.29
2019-01-06T07:00:31.429Z,1027.23
2019-01-06T07:01:31.411Z,1027.30
2019-01-06T07:02:31.400Z,1027.32
2019-01-06T07:03:31.392Z,1027.30
2019-01-06T07:04:31.383Z,1027.31
2019-01-06T07:05:31.376Z,1027.34
2019-01-06T07:06:31.367Z,1027.34
2019-01-06T07:07:31.371Z,1027.37
2019-01-06T07:08:31.343Z,1027.38
2019-01-06T07:09:31.337Z,1027.39
2019-01-06T07:10:31.328Z,1027.40
2019-01-06T07:11:31.318Z,1027.42
2019-01-06T07:12:31.311Z,1027.41
2019-01-06T07:13:31.293Z,1027.41
2019-01-06T07:14:31.284Z,1027.44
2019-01-06T07:15:31.277Z,1027.44
2019-01-06T07:16:31.265Z,1027.53
2019-01-06T07:17:31.259Z,1027.49
2019-01-06T07:18:31.250Z,1027.54
2019-01-06T07:19:31.243Z,1027.47
2019-01-06T07:20:31.236Z,1027.50
2019-01-06T07:21:31.216Z,1027.53
2019-01-06T07:22:31.214Z,1027.58
2019-01-06T07:23:31.202Z,1027.62
2019-01-06T07:24:31.192Z,1027.60
2019-01-06T07:25:31.177Z,1027.66
2019-01-06T07:26:31.167Z,1027.66
2019-01-06T07:27:31.157Z,1027.67
2019-01-06T07:28:31.148Z,1027.69
2019-01-06T07:29:31.144Z,1027.62
2019-01-06T07:30:31.131Z,1027.67
2019-01-06T07:31:31.127Z,1027.68
2019-01-06T07:32:31.114Z,1027.69
2019-01-06T07:33:31.100Z,1027.72
2019-01-06T07:34:31.091Z,1027.69
2019-01-06T07:35:31.083Z,1027.71
2019-01-06T07:36:31.070Z,1027.70
2019-01-06T07:37:31.063Z,1027.70
2019-01-06T07:38:31.054Z,1027.72
2019-01-06T07:39:31.040Z,1027.68
2019-01-06T07:40:31.034Z,1027.78
2019-01-06T07:41:31.027Z,1027.77
2019-01-06T07:42:31.015Z,1027.78
2019-01-06T07:43:31.007Z,1027.75
2019-01-06T07:44:30.997Z,1027.82
2019-01-06T07:45:30.982Z,1027.76
2019-01-06T07:46:30.972Z,1027.72
2019-01-06T07:47:30.963Z,1027.77
2019-01-06T07:48:30.953Z,1027.80
2019-01-06T07:49:30.947Z,1027.81
2019-01-06T07:50:30.938Z,1027.76
2019-01-06T07:51:30.927Z,1027.79
2019-01-06T07:52:30.918Z,1027.80
2019-01-06T07:53:30.906Z,1027.76
2019-01-06T07:54:30.896Z,1027.78
2019-01-06T07:55:30.889Z,1027.83
2019-01-06T07:56:30.878Z,1027.85
2019-01-06T07:57:30.863Z,1027.82
2019-01-06T07:58:30.854Z,1027.85
2019-01-06T07:59:30.845Z,1027.91
2019-01-06T08:00:30.837Z,1027.90
2019-01-06T08:01:30.829Z,1027.89
2019-01-06T08:02:31.212Z,1027.89
2019-01-06T08:03:30.811Z,1027.89
2019-01-06T08:04:30.887Z,1027.91
2019-01-06T08:05:30.786Z,1027.89
2019-01-06T08:06:30.777Z,1027.90
2019-01-06T08:07:30.768Z,1027.91
2019-01-06T08:08:30.756Z,1027.97
2019-01-06T08:09:30.751Z,1027.91
2019-01-06T08:10:30.743Z,1027.91
2019-01-06T08:11:30.728Z,1027.99
2019-01-06T08:12:30.718Z,1027.96
2019-01-06T08:13:30.711Z,1027.97
2019-01-06T08:14:30.703Z,1027.99
2019-01-06T08:15:30.693Z,1027.98
2019-01-06T08:16:30.684Z,1027.97
2019-01-06T08:17:30.670Z,1027.98
2019-01-06T08:18:30.659Z,1028.02
2019-01-06T08:19:30.649Z,1028.04
2019-01-06T08:20:30.640Z,1028.01
2019-01-06T08:21:30.635Z,1028.13
2019-01-06T08:22:30.624Z,1028.09
2019-01-06T08:23:30.614Z,1028.09
2019-01-06T08:24:30.605Z,1028.11
2019-01-06T08:25:30.589Z,1028.06
2019-01-06T08:26:30.583Z,1028.09
2019-01-06T08:27:30.574Z,1028.07
2019-01-06T08:28:30.566Z,1028.09
2019-01-06T08:29:30.551Z,1028.13
2019-01-06T08:30:30.543Z,1028.10
2019-01-06T08:31:30.530Z,1028.06
2019-01-06T08:32:30.522Z,1028.15
2019-01-06T08:33:30.517Z,1028.16
2019-01-06T08:34:30.508Z,1028.19
2019-01-06T08:35:30.500Z,1028.20
2019-01-06T08:36:30.488Z,1028.20
2019-01-06T08:37:30.473Z,1028.18
2019-01-06T08:38:30.464Z,1028.19
2019-01-06T08:39:30.453Z,1028.23
2019-01-06T08:40:30.443Z,1028.24
2019-01-06T08:41:30.439Z,1028.23
2019-01-06T08:42:30.429Z,1028.25
2019-01-06T08:43:30.419Z,1028.27
2019-01-06T08:44:30.405Z,1028.23
2019-01-06T08:45:30.400Z,1028.24
2019-01-06T08:46:30.391Z,1028.25
2019-01-06T08:47:30.382Z,1028.22
2019-01-06T08:48:30.372Z,1028.18
2019-01-06T08:49:30.357Z,1028.25
2019-01-06T08:50:30.347Z,1028.26
2019-01-06T08:51:30.338Z,1028.25
2019-01-06T08:52:30.329Z,1028.16
2019-01-06T08:53:30.323Z,1028.22
2019-01-06T08:54:30.318Z,1028.23
2019-01-06T08:55:30.304Z,1028.19
2019-01-06T08:56:30.295Z,1028.23
2019-01-06T08:57:30.280Z,1028.22
2019-01-06T08:58:30.271Z,1028.19
2019-01-06T08:59:30.266Z,1028.20
2019-01-06T09:00:30.256Z,1028.18
2019-01-06T09:01:30.242Z,1028.17
2019-01-06T09:02:30.231Z,1028.21
2019-01-06T09:03:30.223Z,1028.20
2019-01-06T09:04:30.214Z,1028.21
2019-01-06T09:05:30.211Z,1028.18
2019-01-06T09:06:30.199Z,1028.22
2019-01-06T09:07:30.192Z,1028.27
2019-01-06T09:08:30.179Z,1028.21
2019-01-06T09:09:30.164Z,1028.21
2019-01-06T09:10:30.156Z,1028.25
2019-01-06T09:11:30.150Z,1028.22
2019-01-06T09:12:30.137Z,1028.23
2019-01-06T09:13:30.131Z,1028.21
2019-01-06T09:14:30.122Z,1028.20
2019-01-06T09:15:30.110Z,1028.21
2019-01-06T09:16:30.098Z,1028.22
2019-01-06T09:17:30.097Z,1028.22
2019-01-06T09:18:30.083Z,1028.27
2019-01-06T09:19:30.077Z,1028.27
2019-01-06T09:20:30.066Z,1028.28
2019-01-06T09:21:30.050Z,1028.26
2019-01-06T09:22:30.042Z,1028.25
2019-01-06T09:23:30.033Z,1028.31
2019-01-06T09:24:30.023Z,1028.33
2019-01-06T09:25:30.017Z,1028.26
2019-01-06T09:26:30.008Z,1028.30
2019-01-06T09:27:29.998Z,1028.33
2019-01-06T09:28:29.989Z,1028.34
2019-01-06T09:29:29.973Z,1028.38
2019-01-06T09:30:29.967Z,1028.40
2019-01-06T09:31:29.961Z,1028.42
2019-01-06T09:32:29.952Z,1028.48
2019-01-06T09:33:29.936Z,1028.43
2019-01-06T09:34:29.928Z,1028.43
2019-01-06T09:35:31.111Z,1028.50
2019-01-06T09:36:29.910Z,1028.45
2019-01-06T09:37:29.905Z,1028.48
2019-01-06T09:38:29.895Z,1028.52
2019-01-06T09:39:29.886Z,1028.45
2019-01-06T09:40:29.877Z,1028.44
2019-01-06T09:41:29.862Z,1028.49
2019-01-06T09:42:29.854Z,1028.50
2019-01-06T09:43:29.847Z,1028.47
2019-01-06T09:44:29.921Z,1028.47
2019-01-06T09:45:30.956Z,1028.46
2019-01-06T09:46:29.823Z,1028.53
2019-01-06T09:47:29.809Z,1028.50
2019-01-06T09:48:29.800Z,1028.48
2019-01-06T09:49:29.795Z,1028.49
2019-01-06T09:50:29.788Z,1028.53
2019-01-06T09:51:29.776Z,1028.51
2019-01-06T09:52:29.767Z,1028.46
2019-01-06T09:53:29.759Z,1028.49
2019-01-06T09:54:29.748Z,1028.50
2019-01-06T09:55:29.736Z,1028.52
2019-01-06T09:56:29.727Z,1028.50
2019-01-06T09:57:29.722Z,1028.60
2019-01-06T09:58:29.715Z,1028.51
2019-01-06T09:59:29.705Z,1028.47
2019-01-06T10:00:29.700Z,1028.53
2019-01-06T10:01:29.683Z,1028.53
2019-01-06T10:02:29.675Z,1028.47
2019-01-06T10:03:29.672Z,1028.56
2019-01-06T10:04:35.015Z,1028.48
2019-01-06T10:05:29.649Z,1028.54
2019-01-06T10:06:29.640Z,1028.56
2019-01-06T10:07:29.632Z,1028.56
2019-01-06T10:08:29.626Z,1028.61
2019-01-06T10:09:29.618Z,1028.56
2019-01-06T10:10:29.610Z,1028.59
2019-01-06T10:11:29.602Z,1028.55
2019-01-06T10:12:29.594Z,1028.59
2019-01-06T10:13:29.580Z,1028.60
2019-01-06T10:14:29.573Z,1028.60
2019-01-06T10:15:29.563Z,1028.65
2019-01-06T10:16:29.559Z,1028.65
2019-01-06T10:17:29.553Z,1028.64
2019-01-06T10:18:29.551Z,1028.64
2019-01-06T10:19:29.537Z,1028.65
2019-01-06T10:20:29.520Z,1028.65
2019-01-06T10:21:29.518Z,1028.69
2019-01-06T10:22:29.507Z,1028.67
2019-01-06T10:23:29.497Z,1028.69
2019-01-06T10:24:29.492Z,1028.67
2019-01-06T10:25:29.482Z,1028.66
2019-01-06T10:26:29.467Z,1028.69
2019-01-06T10:27:29.459Z,1028.71
2019-01-06T10:28:29.452Z,1028.69
2019-01-06T10:29:29.446Z,1028.67
2019-01-06T10:30:29.441Z,1028.63
2019-01-06T10:31:29.440Z,1028.59
2019-01-06T10:32:29.426Z,1028.62
2019-01-06T10:33:29.411Z,1028.63
2019-01-06T10:34:29.400Z,1028.66
2019-01-06T10:35:29.397Z,1028.65
2019-01-06T10:36:29.389Z,1028.63
2019-01-06T10:37:29.373Z,1028.66
2019-01-06T10:38:29.366Z,1028.63
2019-01-06T10:39:29.359Z,1028.62
2019-01-06T10:40:29.350Z,1028.64
2019-01-06T10:41:29.350Z,1028.66
2019-01-06T10:42:29.337Z,1028.65
2019-01-06T10:43:29.330Z,1028.65
2019-01-06T10:44:29.326Z,1028.65
2019-01-06T10:45:29.306Z,1028.63
2019-01-06T10:46:29.307Z,1028.61
2019-01-06T10:47:29.289Z,1028.65
2019-01-06T10:48:29.283Z,1028.67
2019-01-06T10:49:29.279Z,1028.69
2019-01-06T10:50:29.267Z,1028.65
2019-01-06T10:51:29.262Z,1028.68
2019-01-06T10:52:29.246Z,1028.69
2019-01-06T10:53:29.243Z,1028.66
2019-01-06T10:54:29.233Z,1028.73
2019-01-06T10:55:29.227Z,1028.70
2019-01-06T10:56:29.218Z,1028.66
2019-01-06T10:57:29.207Z,1028.68
2019-01-06T10:58:29.195Z,1028.67
2019-01-06T10:59:29.188Z,1028.67
2019-01-06T11:00:29.178Z,1028.65
2019-01-06T11:01:29.175Z,1028.65
2019-01-06T11:02:29.514Z,1028.69
2019-01-06T11:03:29.156Z,1028.68
2019-01-06T11:04:29.148Z,1028.70
2019-01-06T11:05:29.137Z,1028.70
2019-01-06T11:06:29.128Z,1028.74
2019-01-06T11:07:29.132Z,1028.72
2019-01-06T11:08:29.114Z,1028.73
2019-01-06T11:09:29.106Z,1028.72
2019-01-06T11:10:29.094Z,1028.69
2019-01-06T11:11:29.085Z,1028.70
2019-01-06T11:12:29.078Z,1028.72
2019-01-06T11:13:29.073Z,1028.71
2019-01-06T11:14:29.065Z,1028.67
2019-01-06T11:15:29.058Z,1028.66
2019-01-06T11:16:29.049Z,1028.69
2019-01-06T11:17:29.033Z,1028.69
2019-01-06T11:18:29.026Z,1028.70
2019-01-06T11:19:29.017Z,1028.70
2019-01-06T11:20:29.009Z,1028.66
2019-01-06T11:21:29.004Z,1028.70
2019-01-06T11:22:28.996Z,1028.71
2019-01-06T11:23:28.985Z,1028.78
2019-01-06T11:24:28.976Z,1028.72
2019-01-06T11:25:28.971Z,1028.74
2019-01-06T11:26:28.963Z,1028.74
2019-01-06T11:27:28.956Z,1028.76
2019-01-06T11:28:28.947Z,1028.78
2019-01-06T11:29:28.933Z,1028.72
2019-01-06T11:30:28.924Z,1028.75
2019-01-06T11:31:28.917Z,1028.78
2019-01-06T11:32:28.913Z,1028.78
2019-01-06T11:33:28.904Z,1028.76
2019-01-06T11:34:28.897Z,1028.75
2019-01-06T11:35:28.886Z,1028.76
2019-01-06T11:36:28.880Z,1028.77
2019-01-06T11:37:28.871Z,1028.79
2019-01-06T11:38:28.856Z,1028.71
2019-01-06T11:39:28.857Z,1028.72
2019-01-06T11:40:28.846Z,1028.77
2019-01-06T11:41:28.834Z,1028.69
2019-01-06T11:42:28.825Z,1028.72
2019-01-06T11:43:28.819Z,1028.73
2019-01-06T11:44:28.815Z,1028.76
2019-01-06T11:45:28.804Z,1028.66
2019-01-06T11:46:28.796Z,1028.74
2019-01-06T11:47:28.794Z,1028.72
2019-01-06T11:48:28.783Z,1028.72
2019-01-06T11:49:28.766Z,1028.73
2019-01-06T11:50:28.762Z,1028.74
2019-01-06T11:51:28.755Z,1028.74
2019-01-06T11:52:28.741Z,1028.69
2019-01-06T11:53:28.740Z,1028.63
2019-01-06T11:54:28.729Z,1028.61
2019-01-06T11:55:28.724Z,1028.62
2019-01-06T11:56:28.708Z,1028.64
2019-01-06T11:57:28.705Z,1028.62
2019-01-06T11:58:28.699Z,1028.64
2019-01-06T11:59:28.688Z,1028.64
2019-01-06T12:00:28.681Z,1028.63
2019-01-06T12:01:28.669Z,1028.62
2019-01-06T12:02:28.659Z,1028.57
2019-01-06T12:03:28.654Z,1028.55
2019-01-06T12:04:28.645Z,1028.54
2019-01-06T12:05:28.642Z,1028.54